Starz - A (STRZA) Latest Bloomsberg Price


Mffais Ranking #2131 Overall / #8 Industry
Industry: Entertainment Content

Number of Companies: 239 (Ranking #679 Overall/#9 Industry)
Inflow: $ 294,032 (K) (Ranking #408 Overall/#7 Industry)
Outflow: $ -319,655 (K)
Mffais Flow: $ -25,623 (K) (Ranking #2131 Overall/#8 Industry)


Receive a FREE weekly executive review of stocks moving into the top 10, taking the top industy spot or moving up within their industry. Sent directly to your Inbox every Saturday. Sign up today and get last week's review immediately sent to you.

We value and respect your privacy. Please read our Terms and Conditions which states our firm commitment to your privacy. Your email address will not be shared with a third party, nor will it be sold or used for purposes other than subscription for the weekly review.

Owner CPOR Shares Action Qty Chg Invested (K) Total Current Value (K)
Carlson Capital L P 2016-09-30 3,671,000 Added More 3,271,000 $ 99,634 $ 111,818
Water Island Capital Llc 2016-09-30 1,031,015 Added More 886,015 $ 26,988 $ 31,404
P Schoenfeld Asset Management Lp 2016-09-30 1,295,742 Added More 795,742 $ 24,238 $ 39,468
Alpine Associates Management Inc 2016-09-30 783,300 New Holding 783,300 $ 23,859 $ 23,859
Omers Administration Corp 2016-09-30 876,500 Added More 666,500 $ 20,301 $ 26,698
Sandell Asset Management Corp 2016-09-30 412,400 New Holding 412,400 $ 12,561 $ 12,561
Everpoint Asset Management Llc 2016-09-30 387,686 Added More 384,586 $ 11,714 $ 11,808
Longfellow Investment Management Co Llc 2016-09-30 300,000 New Holding 300,000 $ 9,138 $ 9,138
Coastland Capital Llc 2016-09-30 297,777 New Holding 297,777 $ 9,070 $ 9,070
Ivory Investment Management Llc 2016-09-30 1,828,415 Added More 265,222 $ 8,078 $ 55,693
Putnam Investments Llc 2016-09-30 205,796 New Holding 205,796 $ 6,268 $ 6,268
Hutchin Hill Capital Lp 2016-09-30 186,104 New Holding 186,104 $ 5,668 $ 5,668
First Foundation Advisors 2016-09-30 144,012 New Holding 144,012 $ 4,386 $ 4,386
Ontario Teachers Pension Plan Board 2016-09-30 125,300 New Holding 125,300 $ 3,816 $ 3,816
Vertex One Asset Management Inc 2016-09-30 116,300 New Holding 116,300 $ 3,542 $ 3,542
Havens Advisors Llc 2016-09-30 116,261 New Holding 116,261 $ 3,541 $ 3,541
Westfield Capital Management Co Lp 2016-09-30 919,410 Added More 110,380 $ 3,362 $ 28,005
Springbok Capital Management Llc 2016-09-30 50,000 New Holding 50,000 $ 1,523 $ 1,523
Parametric Portfolio Associates Llc 2016-09-30 141,589 Added More 46,308 $ 1,410 $ 4,312
Cadence Capital Management Llc 2016-09-30 45,861 New Holding 45,861 $ 1,396 $ 1,396
Indexiq Advisors Llc 2016-09-30 37,133 New Holding 37,133 $ 1,131 $ 1,131
Capstone Investment Advisors Llc 2016-09-30 33,630 New Holding 33,630 $ 1,024 $ 1,024
Ibis Capital Partners Llp 2016-09-30 629,885 Added More 32,288 $ 983 $ 19,186
Capital Fund Management S A 2016-09-30 29,925 New Holding 29,925 $ 911 $ 911
Perella Weinberg Partners Capital Management Lp 2016-09-30 56,038 Added More 29,858 $ 909 $ 1,706
Sg Americas Securities Llc 2016-09-30 29,396 New Holding 29,396 $ 895 $ 895
Fort L P 2016-09-30 150,107 Added More 25,783 $ 785 $ 4,572
Telemetry Investments L L C 2016-09-30 23,000 New Holding 23,000 $ 700 $ 700
Gluskin Sheff Assoc Inc 2016-09-30 22,550 New Holding 22,550 $ 686 $ 686
Kynikos Associates Lp 2016-09-30 166,666 Added More 21,452 $ 653 $ 5,076
Northern Trust Corp 2016-09-30 371,061 Added More 18,899 $ 575 $ 11,302
Meeder Asset Management Inc 2016-09-30 18,692 New Holding 18,692 $ 569 $ 569
Highbridge Capital Management Llc 2016-09-30 17,941 New Holding 17,941 $ 546 $ 546
Zacks Investment Management 2016-09-30 16,427 New Holding 16,427 $ 500 $ 500
Seven Eight Capital Llc 2016-09-30 9,100 New Holding 9,100 $ 277 $ 277
Soros Fund Management Llc 2016-09-30 8,865 New Holding 8,865 $ 270 $ 270
Sphinx Trading Lp 2016-09-30 8,000 New Holding 8,000 $ 243 $ 243
Guggenheim Capital Llc 2016-09-30 27,423 Added More 7,754 $ 236 $ 835
Fny Managed Accounts Llc 2016-09-30 7,500 New Holding 7,500 $ 228 $ 228
Trexquant Investment Lp 2016-09-30 7,500 New Holding 7,500 $ 228 $ 228
Raymond James Associates 2016-09-30 212,618 Added More 5,265 $ 160 $ 6,476
Hightower Advisors Llc 2016-09-30 36,987 Added More 4,262 $ 129 $ 1,126
Invictus Rg 2016-09-30 4,034 Added More 3,902 $ 118 $ 122
Rhumbline Advisers 2016-09-30 93,880 Added More 2,989 $ 91 $ 2,859
Aperio Group Llc 2016-09-30 19,131 Added More 2,338 $ 71 $ 582
Ngam Advisors L P 2016-09-30 37,533 Added More 2,135 $ 65 $ 1,143
New York State Teachers Retirement System 2016-09-30 7,300 Added More 2,100 $ 63 $ 222
Pnc Financial Services Group Inc 2016-09-30 33,264 Added More 1,939 $ 59 $ 1,013
First Republic Investment Management Inc 2016-09-30 12,575 Added More 1,920 $ 58 $ 383
California State Teachers Retirement System 2016-09-30 179,932 Added More 1,600 $ 48 $ 5,480
Bokf Na 2016-09-30 13,893 Added More 1,475 $ 44 $ 423
Comerica Bank 2016-09-30 59,309 Added More 1,460 $ 44 $ 1,806
Commonwealth Bank Of Australia 2016-09-30 18,200 Added More 1,400 $ 42 $ 554
Trimtabs Asset Management Llc 2016-09-30 792 New Holding 792 $ 24 $ 24
Blackrock Investment Management Llc 2016-09-30 33,722 Added More 721 $ 21 $ 1,027
Sei Investments Co 2016-09-30 63,919 Added More 713 $ 21 $ 1,946
Pacer Advisors Inc 2016-09-30 7,547 Added More 636 $ 19 $ 229
Opera Trading Capital 2016-09-30 594 New Holding 594 $ 18 $ 18
Qs Investors Llc 2016-09-30 14,289 Added More 481 $ 14 $ 435
Zurcher Kantonalbank Zurich Cantonalbank 2016-09-30 2,363 Added More 348 $ 10 $ 71
Oakworth Capital Inc 2016-09-30 276 New Holding 276 $ 8 $ 8
Penserra Capital Management Llc 2016-09-30 575 Added More 230 $ 7 $ 17
Hall Laurie J Trustee 2016-06-30 430 Added More 230 $ 6 $ 12
Ropes Wealth Advisors Llc 2016-09-30 1,418 Added More 214 $ 6 $ 43
Concannon Wealth Management Llc 2016-09-30 195 New Holding 195 $ 5 $ 5
Keybank National Association Oh 2016-09-30 7,275 Added More 128 $ 3 $ 221
Next Financial Group Inc 2016-09-30 1,143 Added More 78 $ 2 $ 34
Lebenthal Asset Management Llc 2016-09-30 65 New Holding 65 $ 1 $ 1
Sterling Capital Management Llc 2016-09-30 576,494 Added More 35 $ 1 $ 17,560
Cable Hill Partners Llc 2016-09-30 16 Added More 6 $ 0 $ 0
Ct Financial Advisors Llc 2016-09-30 1,513 No Change 0 $ 0 $ 46
Integrated Wealth Management 2016-09-30 5 No Change 0 $ 0 $ 0
First Personal Financial Services 2016-09-30 2,501 No Change 0 $ 0 $ 76
Wealthtrust-Arizona Llc 2016-09-30 100 No Change 0 $ 0 $ 3
Palladium Partners Llc 2016-09-30 8,428 No Change 0 $ 0 $ 256
Benjamin F Edwards Company Inc 2016-09-30 190 No Change 0 $ 0 $ 5
Taylor Wealth Management Partners 2016-09-30 28 No Change 0 $ 0 $ 0
Babson Capital Management Llc 2016-09-30 107,800 No Change 0 $ 0 $ 3,283
Tarbox Group Inc 2016-09-30 25 No Change 0 $ 0 $ 0
Decatur Capital Management Inc 2016-09-30 34,475 No Change 0 $ 0 $ 1,050
Cranbrook Wealth Management Llc 2016-09-30 2 No Change 0 $ 0 $ 0
Quadrant Capital Group Llc 2016-09-30 108 No Change 0 $ 0 $ 3
Mai Capital Management 2016-09-30 8,354 No Change 0 $ 0 $ 254
Enterprise Financial Services Corp 2016-09-30 9 No Change 0 $ 0 $ 0
United Services Automobile Association 2016-09-30 100,000 No Change 0 $ 0 $ 3,046
Thompson Davis Co Inc 2016-09-30 54 No Change 0 $ 0 $ 1
Nisa Investment Advisors Llc 2016-09-30 1,621 No Change 0 $ 0 $ 49
First Interstate Bank 2016-09-30 23 No Change 0 $ 0 $ 0
Karpas Strategies Llc 2016-09-30 7,987 No Change 0 $ 0 $ 243
Dupont Capital Management Corp 2016-09-30 19,100 No Change 0 $ 0 $ 581
S Muoio Co Llc 2016-09-30 40,753 No Change 0 $ 0 $ 1,241
Delta Asset Management Llc Tn 2016-09-30 1,607 No Change 0 $ 0 $ 48
Legal General Group Plc 2016-09-30 6,914 No Change 0 $ 0 $ 210
Yorktown Management Research Co Inc 2016-09-30 8,000 No Change 0 $ 0 $ 243
Utah Retirement Systems 2016-09-30 15,295 No Change 0 $ 0 $ 465
Dimensional Fund Advisors Lp 2016-09-30 728,555 No Change 0 $ 0 $ 22,191
Assetmark Inc 2016-09-30 38 No Change 0 $ 0 $ 1
Bronfman E L Rothschild L P 2016-09-30 35 No Change 0 $ 0 $ 1
Integrated Investment Consultants Llc 2016-09-30 84 No Change 0 $ 0 $ 2
Armbruster Capital Management Inc 2016-09-30 955 No Change 0 $ 0 $ 29
Thrivent Financial For Lutherans 2016-09-30 68 No Change 0 $ 0 $ 2
Fort Warren Capital Management Lp 2016-09-30 292,541 No Change 0 $ 0 $ 8,910
Manchester Capital Management Llc 2016-09-30 3,240 No Change 0 $ 0 $ 98
Chicago Partners Investment Group Llc 2016-09-30 400 No Change 0 $ 0 $ 12
Rocky Mountain Advisers Llc 2016-09-30 185 No Change 0 $ 0 $ 5
Highlander Capital Management Llc 2016-09-30 45 No Change 0 $ 0 $ 1
Advisory Services Network Llc 2016-09-30 15 No Change 0 $ 0 $ 0
Alexandria Capital Llc 2016-09-30 6 No Change 0 $ 0 $ 0
Carroll Financial Associates Inc 2016-09-30 139 No Change 0 $ 0 $ 4
Wfg Advisors Lp 2016-09-30 1,033 No Change 0 $ 0 $ 31
Plante Moran Financial Advisors Llc 2016-09-30 0 Sold All -17 $ -0 $ 0
Jacobi Capital Management Llc 2016-09-30 0 Sold All -18 $ -0 $ 0
Msi Financial Services Inc 2016-09-30 612 Sold Some -21 $ -0 $ 18
Fifth Third Bancorp 2016-09-30 83 Sold Some -23 $ -0 $ 2
Mosaic Family Wealth Llc 2016-09-30 985 Sold Some -27 $ -0 $ 30
Cwm Llc 2016-09-30 2 Sold Some -30 $ -0 $ 0
Washington Trust Bank 2016-09-30 0 Sold All -31 $ -0 $ 0
M R Capital Management Inc 2016-09-30 927 Sold Some -34 $ -1 $ 28
Pinebridge Investments L P 2016-09-30 375 Sold Some -45 $ -1 $ 11
Independent Portfolio Consultants Inc 2016-09-30 680 Sold Some -45 $ -1 $ 20
Ftb Advisors Inc 2016-09-30 219 Sold Some -48 $ -1 $ 6
Tortoise Investment Management Llc 2016-09-30 0 Sold All -67 $ -2 $ 0
American International Group Inc 2016-09-30 1,991 Sold Some -87 $ -2 $ 60
Mraz Amerine Associates Inc 2016-09-30 10,504 Sold Some -94 $ -2 $ 319
Trust Co Of Vermont 2016-09-30 0 Sold All -100 $ -3 $ 0
Acrospire Investment Management Llc 2016-09-30 2,000 Sold Some -100 $ -3 $ 60
Ifp Advisors Inc 2016-09-30 874 Sold Some -133 $ -4 $ 26
Creative Planning 2016-09-30 10,122 Sold Some -137 $ -4 $ 308
Great Lakes Advisors Llc 2016-09-30 11,082 Sold Some -156 $ -4 $ 337
Loring Wolcott Coolidge Fiduciary Advisors Llp Ma 2016-09-30 41 Sold Some -157 $ -4 $ 1
Us Bancorp De 2016-09-30 2,915 Sold Some -187 $ -5 $ 88
Cornerstone Advisors Inc 2016-09-30 210 Sold Some -210 $ -6 $ 6
Northwestern Mutual Wealth Management Co 2016-09-30 66 Sold Some -255 $ -7 $ 2
Bessemer Group Inc 2016-09-30 59 Sold Some -299 $ -9 $ 1
Blackrock Inc 2016-09-30 13,079 Sold Some -354 $ -10 $ 398
M T Bank Corp 2016-09-30 8,410 Sold Some -392 $ -11 $ 256
Checchi Capital Advisers Llc 2016-09-30 0 Sold All -477 $ -14 $ 0
Ibm Retirement Fund 2016-09-30 8,017 Sold Some -496 $ -15 $ 244
Vantage Investment Advisors Llc 2016-09-30 7,547 Sold Some -519 $ -15 $ 229
First Manhattan Co 2016-09-30 92,944 Sold Some -524 $ -15 $ 2,831
S Co Inc 2016-09-30 363,341 Sold Some -670 $ -20 $ 11,067
Parkside Financial Bank Trust 2016-09-30 24 Sold Some -840 $ -25 $ 0
Sunbelt Securities Inc 2016-09-30 0 Sold All -870 $ -26 $ 0
Mad River Investors 2016-09-30 69,316 Sold Some -927 $ -28 $ 2,111
Stifel Financial Corp 2016-09-30 18,203 Sold Some -1,021 $ -31 $ 554
Van Eck Associates Corp 2016-09-30 0 Sold All -1,223 $ -37 $ 0
Clear Harbor Asset Management Llc 2016-09-30 20,545 Sold Some -1,300 $ -39 $ 625
Ladenburg Thalmann Financial Services Inc 2016-09-30 3,033 Sold Some -1,319 $ -40 $ 92
Vnbtrust National Association 2016-09-30 94,123 Sold Some -1,702 $ -51 $ 2,866
Oshaughnessy Asset Management Llc 2016-09-30 0 Sold All -1,889 $ -57 $ 0
Gabelli Funds Llc 2016-09-30 339,100 Sold Some -2,000 $ -60 $ 10,328
Tower Research Capital Llc Trc 2016-09-30 0 Sold All -2,015 $ -61 $ 0
Ancora Advisors Llc 2016-09-30 23,788 Sold Some -3,120 $ -95 $ 724
Teacher Retirement System Of Texas 2016-09-30 8,955 Sold Some -3,195 $ -97 $ 272
Gsa Capital Partners Llp 2016-09-30 60,889 Sold Some -3,416 $ -104 $ 1,854
Advisor Group Inc 2016-09-30 2,568 Sold Some -3,429 $ -104 $ 78
Fuller Thaler Asset Management Inc 2016-09-30 0 Sold All -4,500 $ -137 $ 0
Simplex Trading Llc 2016-09-30 39 Sold Some -4,627 $ -140 $ 1
Moon Capital Management Llc 2016-09-30 80,280 Sold Some -4,850 $ -147 $ 2,445
Gargoyle Investment Advisor L L C 2016-09-30 15,800 Sold Some -5,700 $ -173 $ 481
Panagora Asset Management Inc 2016-09-30 41,744 Sold Some -5,846 $ -178 $ 1,271
Eagle Global Advisors Llc 2016-09-30 155,353 Sold Some -5,955 $ -181 $ 4,732
C M Bidwell Associates Ltd 2016-09-30 0 Sold All -6,485 $ -197 $ 0
Envestnet Asset Management Inc 2016-09-30 12,134 Sold Some -6,571 $ -200 $ 369
Hsbc Holdings Plc 2016-09-30 6,524 Sold Some -6,603 $ -201 $ 198
Swiss National Bank 2016-09-30 137,742 Sold Some -9,000 $ -274 $ 4,195
Sarbit Advisory Services Inc 2016-09-30 698,161 Sold Some -9,339 $ -284 $ 21,265
Quantitative Investment Management Llc 2016-09-30 0 Sold All -9,400 $ -286 $ 0
Cubist Systematic Strategies Llc 2016-09-30 4,538 Sold Some -9,730 $ -296 $ 138
Moore Capital Management Lp 2016-09-30 0 Sold All -10,000 $ -304 $ 0
Css Llc Il 2016-09-30 33,972 Sold Some -10,500 $ -319 $ 1,034
Alambic Investment Management L P 2016-09-30 37,800 Sold Some -10,600 $ -322 $ 1,151
Brown Brothers Harriman Co 2016-09-30 4,063 Sold Some -11,336 $ -345 $ 123
Group One Trading L P 2016-09-30 2,042 Sold Some -11,450 $ -348 $ 62
Her Majesty The Queen In Right Of The Province Of Alberta As 2016-09-30 65,800 Sold Some -12,100 $ -368 $ 2,004
Gamco Investors Inc Et Al 2016-09-30 331,046 Sold Some -12,739 $ -388 $ 10,083
Alps Advisors Inc 2016-09-30 0 Sold All -14,090 $ -429 $ 0
Bayesian Capital Management Lp 2016-09-30 0 Sold All -14,373 $ -437 $ 0
Markston International Llc 2016-09-30 110,753 Sold Some -15,300 $ -466 $ 3,373
Parametrica Management Ltd 2016-09-30 13,375 Sold Some -16,604 $ -505 $ 407
Hays Advisory Llc 2016-09-30 163,654 Sold Some -16,760 $ -510 $ 4,984
Deere Co 2016-09-30 0 Sold All -16,794 $ -511 $ 0
Commerzbank Aktiengesellschaft Fi 2016-09-30 0 Sold All -17,069 $ -519 $ 0
Ridgeworth Capital Management Llc 2016-09-30 0 Sold All -18,150 $ -552 $ 0
Cornercap Investment Counsel Inc 2016-09-30 0 Sold All -20,555 $ -626 $ 0
Jacobs Levy Equity Management Inc 2016-09-30 0 Sold All -21,630 $ -658 $ 0
Denali Advisors Llc 2016-09-30 0 Sold All -22,400 $ -682 $ 0
Congress Asset Management Co Ma 2016-09-30 210,870 Sold Some -23,957 $ -729 $ 6,423
Freestone Capital Holdings Llc 2016-09-30 435,438 Sold Some -24,040 $ -732 $ 13,263
Pinnacle Associates Ltd 2016-09-30 1,319,056 Sold Some -25,852 $ -787 $ 40,178
Kimelman Baird Llc 2016-06-30 0 Sold All -26,350 $ -788 $ 0
Walleye Trading Llc 2016-09-30 3,300 Sold Some -26,324 $ -801 $ 100
Systematic Financial Management Lp 2016-09-30 321,064 Sold Some -27,336 $ -832 $ 9,779
Quantbot Technologies Lp 2016-09-30 0 Sold All -28,737 $ -875 $ 0
Kcg Holdings Inc 2016-09-30 0 Sold All -29,127 $ -887 $ 0
Connor Clark Lunn Investment Management Ltd 2016-09-30 0 Sold All -30,850 $ -939 $ 0
Piermont Capital Management Inc 2016-09-30 0 Sold All -31,312 $ -953 $ 0
Cantab Capital Partners Llp 2016-09-30 0 Sold All -31,715 $ -966 $ 0
Pacad Investment Ltd 2016-09-30 0 Sold All -33,399 $ -1,017 $ 0
Peak6 Investments L P 2016-09-30 21,616 Sold Some -40,184 $ -1,224 $ 658
Squarepoint Ops Llc 2016-09-30 0 Sold All -43,300 $ -1,318 $ 0
Cutler Group Lp 2016-09-30 23,748 Sold Some -46,031 $ -1,402 $ 723
Kassirer Asset Management Corp 2016-09-30 0 Sold All -50,000 $ -1,523 $ 0
Voloridge Investment Management Llc 2016-09-30 0 Sold All -50,260 $ -1,530 $ 0
A R T Advisors Llc 2016-09-30 6,700 Sold Some -54,103 $ -1,647 $ 204
Centurylink Investment Management Co 2016-09-30 0 Sold All -57,043 $ -1,737 $ 0
Bluemountain Capital Management Llc 2016-09-30 0 Sold All -58,313 $ -1,776 $ 0
Engineers Gate Manager Lp 2016-09-30 0 Sold All -58,431 $ -1,779 $ 0
New York State Common Retirement Fund 2016-09-30 211,875 Sold Some -60,141 $ -1,831 $ 6,453
Emerald Acquisition Ltd 2016-09-30 14,283 Sold Some -64,863 $ -1,975 $ 435
Hosking Partners Llp 2016-09-30 38,426 Sold Some -71,927 $ -2,190 $ 1,170
Clark Estates Inc Ny 2016-09-30 0 Sold All -74,300 $ -2,263 $ 0
Bronson Point Management Llc 2016-09-30 0 Sold All -75,000 $ -2,284 $ 0
Kenmare Capital Partners L L C 2016-09-30 0 Sold All -84,361 $ -2,569 $ 0
Ota Financial Group L P 2016-09-30 0 Sold All -91,219 $ -2,778 $ 0
Tudor Investment Corp Et Al 2016-09-30 17,707 Sold Some -91,602 $ -2,790 $ 539
Marshall Wace Llp 2016-09-30 125,028 Sold Some -94,535 $ -2,879 $ 3,808
Nationwide Fund Advisors 2016-09-30 0 Sold All -100,000 $ -3,046 $ 0
Banco Btg Pactual S A 2016-09-30 0 Sold All -100,000 $ -3,046 $ 0
Driehaus Capital Management Llc 2016-09-30 0 Sold All -100,099 $ -3,049 $ 0
Martingale Asset Management L P 2016-09-30 0 Sold All -104,556 $ -3,184 $ 0
Folger Hill Asset Management Lp 2016-09-30 0 Sold All -115,000 $ -3,502 $ 0
Cornerstone Capital Management Holdings Llc 2016-09-30 0 Sold All -153,201 $ -4,666 $ 0
Horizon Kinetics Llc 2016-09-30 4,657,004 Sold Some -178,160 $ -5,426 $ 141,852
Pagoda Asset Management Lp 2016-09-30 0 Sold All -180,006 $ -5,482 $ 0
Keeley Asset Management Corp 2016-09-30 0 Sold All -184,854 $ -5,630 $ 0
Gotham Asset Management Llc 2016-09-30 164,216 Sold Some -212,648 $ -6,477 $ 5,002
Old Mutual Global Investors Uk Ltd 2016-09-30 0 Sold All -226,697 $ -6,905 $ 0
Granite Investment Advisors Inc 2016-09-30 0 Sold All -234,572 $ -7,145 $ 0
Adi Capital Management Llc 2016-09-30 0 Sold All -249,313 $ -7,594 $ 0
Three Peaks Capital Management Llc 2016-09-30 0 Sold All -300,672 $ -9,158 $ 0
Grantham Mayo Van Otterloo Co Llc 2016-09-30 10,853 Sold Some -320,484 $ -9,761 $ 330
Clearline Capital Lp 2016-09-30 0 Sold All -365,954 $ -11,146 $ 0
River Road Asset Management Llc 2016-09-30 0 Sold All -377,753 $ -11,506 $ 0
Teachers Advisors Inc 2016-09-30 97,098 Sold Some -426,401 $ -12,988 $ 2,957
Quantum Capital Management 2016-09-30 0 Sold All -465,055 $ -14,165 $ 0
Ratan Capital Management Lp 2016-09-30 0 Sold All -1,285,860 $ -39,167 $ 0
York Capital Management Global Advisors Llc 2016-09-30 0 Sold All -1,434,364 $ -43,690 $ 0
Columbia Wanger Asset Management Llc 2016-09-30 0 Sold All -1,479,416 $ -45,063 $ 0